Aérodrome :
LOGIN :

S'inscrire | Disclaimer

   EN    FR    IT 

 










Légende :    VFR   VFR Marginal   IFR   IFR Intensif   IFR Très Intensif
Visi : 
Plafond : 
>= 8 km
>= 3000ft
5 à 8 km
1000 à 3000 ft
1500m à 5 km
500 à 1000 ft
800 à 1500m
200 à 500 ft
< 800m
< 200 ft
Symboles :   Orages  Brouillard  Fortes neiges  Fortes précipitations  Vent > 20 kt
SIGMETs :   Divers  Orages  Givrage  Turbulence  Onde Orograph.  Cendres Volcan.







- Altitude de l'aérodrome : 459 ft
- Code IATA : CER
- Voir les cartes d'approche


LFRC - Cherbourg / Maupertus

DERNIER METAR :
  • 211630Z AUTO 26022KT 3100 DZ BR OVC003 11/10 Q1011 TEMPO 27025G35KT 1500 RADZ

METARs EXPIRÉS :
  • 211600Z AUTO 26022KT 2500 -DZ BR OVC004 11/10 Q1012 TEMPO 27025G35KT RADZ
  • 211530Z AUTO 26024G35KT 3500 -DZ BR OVC003 11/10 Q1012 TEMPO 1500 RADZ
  • 211500Z AUTO 26024KT 5000 BR OVC003 11/10 Q1012 TEMPO 27025G35KT 1500 RADZ
  • 211430Z AUTO 26023G36KT 9999 OVC004 11/10 Q1012 TEMPO 1500 RADZ
  • 211400Z AUTO 27024G35KT 5000 -RA BR OVC003 11/10 Q1012 TEMPO 1500 RADZ

TAF TAF LFRC
Valide du 21 à 15h jusqu'au 22 à 00h UTC


211400Z 2115/2124 27020G30KT 5000 RADZ BKN015
TEMPO 2115/2124 27025G35KT 4000 RADZ BKN005
PROB40 2115/2124 1500 RADZ BKN002
Pas de NOTAMs connus pour ce terrain.



MET'MAP, la Météo Aéronautique d'un coup d'oeil ! - Copyright ORBIFLY Décembre 2007 - Disclaimer

ORBIFLY MET'MAP TEAM :

Programmation & Développement : Alexandra Zaïnal
Conception & Développement : Baudouin d'Aumeries
Co-Programmation & Développement : Marc-Olivier Méhu
Soutien technique & logistique : Manuel Goepfert

Contact : metmap@orbifly.com




SOURCES & CREDITS :

   NOAA